sensor_id;sensor_type;location;lat;lon;timestamp;temperature;humidity
72128;DHT22;60000;51.030;7.024;2022-11-04T00:01:04;10.88;84.61
72128;DHT22;60000;51.030;7.024;2022-11-04T00:03:29;10.88;84.58
72128;DHT22;60000;51.030;7.024;2022-11-04T00:05:55;10.86;84.61
72128;DHT22;60000;51.030;7.024;2022-11-04T00:08:24;10.85;84.34
72128;DHT22;60000;51.030;7.024;2022-11-04T00:10:56;10.83;84.41
72128;DHT22;60000;51.030;7.024;2022-11-04T00:13:40;10.80;84.09
72128;DHT22;60000;51.030;7.024;2022-11-04T00:16:07;10.82;84.13
72128;DHT22;60000;51.030;7.024;2022-11-04T00:18:51;10.76;83.89
72128;DHT22;60000;51.030;7.024;2022-11-04T00:21:16;10.76;83.98
72128;DHT22;60000;51.030;7.024;2022-11-04T00:24:00;10.76;83.64
72128;DHT22;60000;51.030;7.024;2022-11-04T00:26:44;10.71;83.72
72128;DHT22;60000;51.030;7.024;2022-11-04T00:29:28;10.72;83.61
72128;DHT22;60000;51.030;7.024;2022-11-04T00:31:54;10.73;83.51
72128;DHT22;60000;51.030;7.024;2022-11-04T00:34:38;10.68;83.31
72128;DHT22;60000;51.030;7.024;2022-11-04T00:37:03;10.68;83.37
72128;DHT22;60000;51.030;7.024;2022-11-04T00:39:28;10.65;83.21
72128;DHT22;60000;51.030;7.024;2022-11-04T00:41:54;10.64;83.28
72128;DHT22;60000;51.030;7.024;2022-11-04T00:44:19;10.67;83.39
72128;DHT22;60000;51.030;7.024;2022-11-04T00:46:44;10.59;83.27
72128;DHT22;60000;51.030;7.024;2022-11-04T00:49:10;10.57;83.57
72128;DHT22;60000;51.030;7.024;2022-11-04T00:51:35;10.52;83.61
72128;DHT22;60000;51.030;7.024;2022-11-04T00:54:02;10.52;83.89
72128;DHT22;60000;51.030;7.024;2022-11-04T00:56:27;10.48;83.94
72128;DHT22;60000;51.030;7.024;2022-11-04T00:58:52;10.47;84.16
72128;DHT22;60000;51.030;7.024;2022-11-04T01:01:18;10.44;84.28
72128;DHT22;60000;51.030;7.024;2022-11-04T01:03:48;10.45;84.27
72128;DHT22;60000;51.030;7.024;2022-11-04T01:06:14;10.42;84.57
72128;DHT22;60000;51.030;7.024;2022-11-04T01:08:39;10.45;84.51
72128;DHT22;60000;51.030;7.024;2022-11-04T01:11:06;10.45;84.61
72128;DHT22;60000;51.030;7.024;2022-11-04T01:13:33;10.44;84.80
72128;DHT22;60000;51.030;7.024;2022-11-04T01:15:59;10.47;84.87
72128;DHT22;60000;51.030;7.024;2022-11-04T01:18:25;10.49;84.70
72128;DHT22;60000;51.030;7.024;2022-11-04T01:20:50;10.49;84.70
72128;DHT22;60000;51.030;7.024;2022-11-04T01:23:15;10.49;84.90
72128;DHT22;60000;51.030;7.024;2022-11-04T01:25:41;10.54;84.86
72128;DHT22;60000;51.030;7.024;2022-11-04T01:28:06;10.52;84.93
72128;DHT22;60000;51.030;7.024;2022-11-04T01:30:32;10.57;84.73
72128;DHT22;60000;51.030;7.024;2022-11-04T01:32:57;10.59;84.60
72128;DHT22;60000;51.030;7.024;2022-11-04T01:35:22;10.61;84.38
72128;DHT22;60000;51.030;7.024;2022-11-04T01:37:48;10.64;84.17
72128;DHT22;60000;51.030;7.024;2022-11-04T01:40:13;10.67;84.11
72128;DHT22;60000;51.030;7.024;2022-11-04T01:42:38;10.65;84.15
72128;DHT22;60000;51.030;7.024;2022-11-04T01:45:04;10.64;84.34
72128;DHT22;60000;51.030;7.024;2022-11-04T01:47:40;10.68;84.04
72128;DHT22;60000;51.030;7.024;2022-11-04T01:50:10;10.68;84.03
72128;DHT22;60000;51.030;7.024;2022-11-04T01:55:27;10.61;83.84
72128;DHT22;60000;51.030;7.024;2022-11-04T01:57:55;10.55;83.67
72128;DHT22;60000;51.030;7.024;2022-11-04T02:00:22;10.54;83.67
72128;DHT22;60000;51.030;7.024;2022-11-04T02:03:00;10.48;83.81
72128;DHT22;60000;51.030;7.024;2022-11-04T02:05:28;10.40;83.73
72128;DHT22;60000;51.030;7.024;2022-11-04T02:07:55;10.37;83.53
72128;DHT22;60000;51.030;7.024;2022-11-04T02:10:24;10.33;83.33
72128;DHT22;60000;51.030;7.024;2022-11-04T02:12:50;10.28;83.30
72128;DHT22;60000;51.030;7.024;2022-11-04T02:16:37;10.21;83.29
72128;DHT22;60000;51.030;7.024;2022-11-04T02:18:42;10.13;83.29
72128;DHT22;60000;51.030;7.024;2022-11-04T02:29:22;9.93;83.03
72128;DHT22;60000;51.030;7.024;2022-11-04T02:34:24;9.87;83.09
72128;DHT22;60000;51.030;7.024;2022-11-04T02:39:53;9.76;83.35
72128;DHT22;60000;51.030;7.024;2022-11-04T02:42:26;9.65;83.44
72128;DHT22;60000;51.030;7.024;2022-11-04T02:44:58;9.60;83.68
72128;DHT22;60000;51.030;7.024;2022-11-04T02:47:29;9.56;83.65
72128;DHT22;60000;51.030;7.024;2022-11-04T02:50:07;9.52;83.80
72128;DHT22;60000;51.030;7.024;2022-11-04T02:52:57;9.46;83.76
72128;DHT22;60000;51.030;7.024;2022-11-04T02:55:38;9.43;83.88
72128;DHT22;60000;51.030;7.024;2022-11-04T02:58:10;9.39;83.90
72128;DHT22;60000;51.030;7.024;2022-11-04T03:00:38;9.38;83.81
72128;DHT22;60000;51.030;7.024;2022-11-04T03:03:10;9.36;83.94
72128;DHT22;60000;51.030;7.024;2022-11-04T03:05:39;9.34;83.95
72128;DHT22;60000;51.030;7.024;2022-11-04T03:08:11;9.27;84.01
72128;DHT22;60000;51.030;7.024;2022-11-04T03:10:42;9.27;83.89
72128;DHT22;60000;51.030;7.024;2022-11-04T03:13:48;9.22;83.91
72128;DHT22;60000;51.030;7.024;2022-11-04T03:16:12;9.14;84.00
72128;DHT22;60000;51.030;7.024;2022-11-04T03:18:57;9.03;83.91
72128;DHT22;60000;51.030;7.024;2022-11-04T03:21:26;8.92;83.99
72128;DHT22;60000;51.030;7.024;2022-11-04T03:23:53;8.87;84.53
72128;DHT22;60000;51.030;7.024;2022-11-04T03:29:03;8.80;85.07
72128;DHT22;60000;51.030;7.024;2022-11-04T03:31:42;8.83;85.36
72128;DHT22;60000;51.030;7.024;2022-11-04T03:34:09;8.81;85.45
72128;DHT22;60000;51.030;7.024;2022-11-04T03:36:35;8.81;85.46
72128;DHT22;60000;51.030;7.024;2022-11-04T03:39:00;8.77;85.43
72128;DHT22;60000;51.030;7.024;2022-11-04T03:41:34;8.71;85.56
72128;DHT22;60000;51.030;7.024;2022-11-04T03:44:00;8.67;85.74
72128;DHT22;60000;51.030;7.024;2022-11-04T03:46:26;8.66;85.81
72128;DHT22;60000;51.030;7.024;2022-11-04T03:48:52;8.63;86.03
72128;DHT22;60000;51.030;7.024;2022-11-04T03:51:17;8.57;86.09
72128;DHT22;60000;51.030;7.024;2022-11-04T03:53:42;8.59;86.32
72128;DHT22;60000;51.030;7.024;2022-11-04T04:01:56;8.49;86.81
72128;DHT22;60000;51.030;7.024;2022-11-04T04:07:05;8.46;86.89
72128;DHT22;60000;51.030;7.024;2022-11-04T04:09:50;8.42;86.97
72128;DHT22;60000;51.030;7.024;2022-11-04T04:12:37;8.39;87.10
72128;DHT22;60000;51.030;7.024;2022-11-04T04:15:13;8.36;87.04
72128;DHT22;60000;51.030;7.024;2022-11-04T04:17:45;8.31;86.94
72128;DHT22;60000;51.030;7.024;2022-11-04T04:20:15;8.22;87.05
72128;DHT22;60000;51.030;7.024;2022-11-04T04:22:44;8.12;87.03
72128;DHT22;60000;51.030;7.024;2022-11-04T04:25:12;8.06;87.03
72128;DHT22;60000;51.030;7.024;2022-11-04T04:27:57;7.97;87.16
72128;DHT22;60000;51.030;7.024;2022-11-04T04:30:24;7.95;87.72
72128;DHT22;60000;51.030;7.024;2022-11-04T04:33:12;7.85;87.63
72128;DHT22;60000;51.030;7.024;2022-11-04T04:35:42;7.81;87.80
72128;DHT22;60000;51.030;7.024;2022-11-04T04:41:03;7.75;88.65
72128;DHT22;60000;51.030;7.024;2022-11-04T04:43:48;7.74;88.84
72128;DHT22;60000;51.030;7.024;2022-11-04T04:46:33;7.73;88.88
72128;DHT22;60000;51.030;7.024;2022-11-04T04:49:06;7.71;88.95
72128;DHT22;60000;51.030;7.024;2022-11-04T04:51:34;7.67;88.91
72128;DHT22;60000;51.030;7.024;2022-11-04T04:54:00;7.70;89.07
72128;DHT22;60000;51.030;7.024;2022-11-04T04:56:25;7.67;89.14
72128;DHT22;60000;51.030;7.024;2022-11-04T04:58:50;7.63;89.01
72128;DHT22;60000;51.030;7.024;2022-11-04T05:01:16;7.60;89.17
72128;DHT22;60000;51.030;7.024;2022-11-04T05:03:42;7.60;89.32
72128;DHT22;60000;51.030;7.024;2022-11-04T05:06:07;7.59;89.25
72128;DHT22;60000;51.030;7.024;2022-11-04T05:08:32;7.56;89.44
72128;DHT22;60000;51.030;7.024;2022-11-04T05:10:59;7.56;89.54
72128;DHT22;60000;51.030;7.024;2022-11-04T05:13:25;7.49;89.55
72128;DHT22;60000;51.030;7.024;2022-11-04T05:15:51;7.51;89.87
72128;DHT22;60000;51.030;7.024;2022-11-04T05:18:17;7.49;90.00
72128;DHT22;60000;51.030;7.024;2022-11-04T05:20:42;7.47;90.18
72128;DHT22;60000;51.030;7.024;2022-11-04T05:23:07;7.46;90.14
72128;DHT22;60000;51.030;7.024;2022-11-04T05:25:36;7.46;90.33
72128;DHT22;60000;51.030;7.024;2022-11-04T05:28:01;7.44;90.27
72128;DHT22;60000;51.030;7.024;2022-11-04T05:30:27;7.46;90.26
72128;DHT22;60000;51.030;7.024;2022-11-04T05:32:52;7.43;90.31
72128;DHT22;60000;51.030;7.024;2022-11-04T05:35:18;7.46;90.31
72128;DHT22;60000;51.030;7.024;2022-11-04T05:37:43;7.50;90.40
72128;DHT22;60000;51.030;7.024;2022-11-04T05:40:09;7.53;90.25
72128;DHT22;60000;51.030;7.024;2022-11-04T05:42:34;7.54;90.11
72128;DHT22;60000;51.030;7.024;2022-11-04T05:45:01;7.56;89.98
72128;DHT22;60000;51.030;7.024;2022-11-04T05:47:26;7.59;89.87
72128;DHT22;60000;51.030;7.024;2022-11-04T05:49:51;7.59;89.71
72128;DHT22;60000;51.030;7.024;2022-11-04T05:52:17;7.56;89.66
72128;DHT22;60000;51.030;7.024;2022-11-04T05:54:42;7.56;89.52
72128;DHT22;60000;51.030;7.024;2022-11-04T05:57:08;7.53;89.47
72128;DHT22;60000;51.030;7.024;2022-11-04T05:59:34;7.50;89.57
72128;DHT22;60000;51.030;7.024;2022-11-04T06:01:59;7.47;89.51
72128;DHT22;60000;51.030;7.024;2022-11-04T06:04:25;7.43;89.50
72128;DHT22;60000;51.030;7.024;2022-11-04T06:06:50;7.42;89.69
72128;DHT22;60000;51.030;7.024;2022-11-04T06:09:15;7.42;89.95
72128;DHT22;60000;51.030;7.024;2022-11-04T06:11:41;7.37;89.92
72128;DHT22;60000;51.030;7.024;2022-11-04T06:14:07;7.37;89.81
72128;DHT22;60000;51.030;7.024;2022-11-04T06:16:33;7.32;89.78
72128;DHT22;60000;51.030;7.024;2022-11-04T06:18:58;7.27;90.04
72128;DHT22;60000;51.030;7.024;2022-11-04T06:21:28;7.30;90.42
72128;DHT22;60000;51.030;7.024;2022-11-04T06:23:55;7.30;90.49
72128;DHT22;60000;51.030;7.024;2022-11-04T06:26:22;7.30;90.42
72128;DHT22;60000;51.030;7.024;2022-11-04T06:28:47;7.32;90.43
72128;DHT22;60000;51.030;7.024;2022-11-04T06:31:14;7.33;90.42
72128;DHT22;60000;51.030;7.024;2022-11-04T06:33:39;7.32;90.48
72128;DHT22;60000;51.030;7.024;2022-11-04T06:36:06;7.37;90.53
72128;DHT22;60000;51.030;7.024;2022-11-04T06:38:34;7.33;90.24
72128;DHT22;60000;51.030;7.024;2022-11-04T06:41:01;7.36;90.48
72128;DHT22;60000;51.030;7.024;2022-11-04T06:43:26;7.39;90.58
72128;DHT22;60000;51.030;7.024;2022-11-04T06:45:56;7.40;90.68
72128;DHT22;60000;51.030;7.024;2022-11-04T06:48:21;7.46;90.63
72128;DHT22;60000;51.030;7.024;2022-11-04T06:50:47;7.51;90.58
72128;DHT22;60000;51.030;7.024;2022-11-04T06:53:12;7.56;90.58
72128;DHT22;60000;51.030;7.024;2022-11-04T06:55:38;7.59;90.49
72128;DHT22;60000;51.030;7.024;2022-11-04T06:58:03;7.63;90.46
72128;DHT22;60000;51.030;7.024;2022-11-04T07:00:28;7.69;90.33
72128;DHT22;60000;51.030;7.024;2022-11-04T07:02:54;7.75;90.37
72128;DHT22;60000;51.030;7.024;2022-11-04T07:05:19;7.78;90.33
72128;DHT22;60000;51.030;7.024;2022-11-04T07:07:44;7.82;90.40
72128;DHT22;60000;51.030;7.024;2022-11-04T07:10:10;7.88;90.21
72128;DHT22;60000;51.030;7.024;2022-11-04T07:12:35;7.94;90.12
72128;DHT22;60000;51.030;7.024;2022-11-04T07:15:01;7.99;89.91
72128;DHT22;60000;51.030;7.024;2022-11-04T07:17:26;8.05;89.70
72128;DHT22;60000;51.030;7.024;2022-11-04T07:19:51;8.13;89.42
72128;DHT22;60000;51.030;7.024;2022-11-04T07:22:17;8.21;89.21
72128;DHT22;60000;51.030;7.024;2022-11-04T07:24:42;8.31;88.89
72128;DHT22;60000;51.030;7.024;2022-11-04T07:27:07;8.35;88.70
72128;DHT22;60000;51.030;7.024;2022-11-04T07:29:33;8.39;88.69
72128;DHT22;60000;51.030;7.024;2022-11-04T07:31:58;8.43;88.43
72128;DHT22;60000;51.030;7.024;2022-11-04T07:34:24;8.50;88.17
72128;DHT22;60000;51.030;7.024;2022-11-04T07:36:49;8.53;88.00
72128;DHT22;60000;51.030;7.024;2022-11-04T07:39:14;8.62;87.52
72128;DHT22;60000;51.030;7.024;2022-11-04T07:41:40;8.67;87.29
72128;DHT22;60000;51.030;7.024;2022-11-04T07:44:05;8.69;87.27
72128;DHT22;60000;51.030;7.024;2022-11-04T07:46:31;8.73;87.17
72128;DHT22;60000;51.030;7.024;2022-11-04T07:48:58;8.76;87.08
72128;DHT22;60000;51.030;7.024;2022-11-04T07:51:24;8.74;87.06
72128;DHT22;60000;51.030;7.024;2022-11-04T07:53:49;8.80;87.03
72128;DHT22;60000;51.030;7.024;2022-11-04T07:56:15;8.81;87.07
72128;DHT22;60000;51.030;7.024;2022-11-04T07:58:41;8.83;87.12
72128;DHT22;60000;51.030;7.024;2022-11-04T08:01:09;8.84;87.27
72128;DHT22;60000;51.030;7.024;2022-11-04T08:03:36;8.88;87.34
72128;DHT22;60000;51.030;7.024;2022-11-04T08:06:03;8.85;87.59
72128;DHT22;60000;51.030;7.024;2022-11-04T08:08:29;8.87;87.86
72128;DHT22;60000;51.030;7.024;2022-11-04T08:10:57;8.88;88.24
72128;DHT22;60000;51.030;7.024;2022-11-04T08:13:26;8.91;88.41
72128;DHT22;60000;51.030;7.024;2022-11-04T08:15:52;8.92;88.64
72128;DHT22;60000;51.030;7.024;2022-11-04T08:18:17;8.94;88.76
72128;DHT22;60000;51.030;7.024;2022-11-04T08:20:50;8.96;88.90
72128;DHT22;60000;51.030;7.024;2022-11-04T08:23:16;8.97;89.11
72128;DHT22;60000;51.030;7.024;2022-11-04T08:25:43;9.01;89.30
72128;DHT22;60000;51.030;7.024;2022-11-04T08:28:08;9.08;89.53
72128;DHT22;60000;51.030;7.024;2022-11-04T08:30:37;9.11;89.79
72128;DHT22;60000;51.030;7.024;2022-11-04T08:33:02;9.15;89.81
72128;DHT22;60000;51.030;7.024;2022-11-04T08:35:29;9.21;90.00
72128;DHT22;60000;51.030;7.024;2022-11-04T08:37:55;9.28;90.09
72128;DHT22;60000;51.030;7.024;2022-11-04T08:40:20;9.39;90.44
72128;DHT22;60000;51.030;7.024;2022-11-04T08:42:46;9.65;91.24
72128;DHT22;60000;51.030;7.024;2022-11-04T08:45:11;9.91;91.46
72128;DHT22;60000;51.030;7.024;2022-11-04T08:47:38;9.99;90.39
72128;DHT22;60000;51.030;7.024;2022-11-04T08:50:03;10.04;89.96
72128;DHT22;60000;51.030;7.024;2022-11-04T08:52:28;10.04;89.03
72128;DHT22;60000;51.030;7.024;2022-11-04T08:54:54;10.09;89.04
72128;DHT22;60000;51.030;7.024;2022-11-04T08:57:19;10.13;88.93
72128;DHT22;60000;51.030;7.024;2022-11-04T08:59:44;10.18;89.03
72128;DHT22;60000;51.030;7.024;2022-11-04T09:02:13;10.28;89.25
72128;DHT22;60000;51.030;7.024;2022-11-04T09:04:39;10.38;88.42
72128;DHT22;60000;51.030;7.024;2022-11-04T09:07:05;10.51;88.48
72128;DHT22;60000;51.030;7.024;2022-11-04T09:09:31;10.51;88.23
72128;DHT22;60000;51.030;7.024;2022-11-04T09:11:56;10.59;88.26
72128;DHT22;60000;51.030;7.024;2022-11-04T09:14:22;10.64;87.95
72128;DHT22;60000;51.030;7.024;2022-11-04T09:16:48;10.72;88.08
72128;DHT22;60000;51.030;7.024;2022-11-04T09:19:13;11.06;89.01
72128;DHT22;60000;51.030;7.024;2022-11-04T09:21:38;11.03;86.62
72128;DHT22;60000;51.030;7.024;2022-11-04T09:24:04;11.08;86.61
72128;DHT22;60000;51.030;7.024;2022-11-04T09:26:31;11.13;85.98
72128;DHT22;60000;51.030;7.024;2022-11-04T09:28:57;11.13;85.53
72128;DHT22;60000;51.030;7.024;2022-11-04T09:31:24;11.08;84.99
72128;DHT22;60000;51.030;7.024;2022-11-04T09:33:49;11.06;84.64
72128;DHT22;60000;51.030;7.024;2022-11-04T09:36:15;11.03;84.37
72128;DHT22;60000;51.030;7.024;2022-11-04T09:38:41;11.02;84.48
72128;DHT22;60000;51.030;7.024;2022-11-04T09:48:00;10.98;83.93
72128;DHT22;60000;51.030;7.024;2022-11-04T09:51:16;11.19;85.32
72128;DHT22;60000;51.030;7.024;2022-11-04T09:56:38;11.77;83.89
72128;DHT22;60000;51.030;7.024;2022-11-04T09:59:08;11.99;83.65
72128;DHT22;60000;51.030;7.024;2022-11-04T10:10:03;12.32;81.40
72128;DHT22;60000;51.030;7.024;2022-11-04T10:15:38;12.35;80.18
72128;DHT22;60000;51.030;7.024;2022-11-04T10:21:05;12.52;79.59
72128;DHT22;60000;51.030;7.024;2022-11-04T10:23:32;12.50;77.84
72128;DHT22;60000;51.030;7.024;2022-11-04T10:26:00;12.55;78.43
72128;DHT22;60000;51.030;7.024;2022-11-04T10:28:35;12.63;79.18
72128;DHT22;60000;51.030;7.024;2022-11-04T10:31:03;12.67;77.32
72128;DHT22;60000;51.030;7.024;2022-11-04T10:33:32;12.81;76.87
72128;DHT22;60000;51.030;7.024;2022-11-04T10:36:07;12.80;76.49
72128;DHT22;60000;51.030;7.024;2022-11-04T10:38:40;12.88;77.11
72128;DHT22;60000;51.030;7.024;2022-11-04T10:41:34;12.87;76.78
72128;DHT22;60000;51.030;7.024;2022-11-04T10:44:18;12.90;76.73
72128;DHT22;60000;51.030;7.024;2022-11-04T10:47:30;12.97;77.39
72128;DHT22;60000;51.030;7.024;2022-11-04T10:52:08;13.18;75.97
72128;DHT22;60000;51.030;7.024;2022-11-04T10:54:42;13.19;75.76
72128;DHT22;60000;51.030;7.024;2022-11-04T10:57:09;13.35;76.08
72128;DHT22;60000;51.030;7.024;2022-11-04T10:59:47;13.48;75.57
72128;DHT22;60000;51.030;7.024;2022-11-04T11:02:14;13.59;75.18
72128;DHT22;60000;51.030;7.024;2022-11-04T11:04:39;13.77;74.42
72128;DHT22;60000;51.030;7.024;2022-11-04T11:07:08;13.82;73.15
72128;DHT22;60000;51.030;7.024;2022-11-04T11:14:39;13.97;73.38
72128;DHT22;60000;51.030;7.024;2022-11-04T11:19:49;14.00;72.56
72128;DHT22;60000;51.030;7.024;2022-11-04T11:22:46;13.91;72.43
72128;DHT22;60000;51.030;7.024;2022-11-04T11:25:32;13.94;72.36
72128;DHT22;60000;51.030;7.024;2022-11-04T11:28:00;14.03;72.40
72128;DHT22;60000;51.030;7.024;2022-11-04T11:32:56;14.37;71.48
72128;DHT22;60000;51.030;7.024;2022-11-04T11:35:27;14.38;70.92
72128;DHT22;60000;51.030;7.024;2022-11-04T11:37:53;14.42;70.51
72128;DHT22;60000;51.030;7.024;2022-11-04T11:40:24;14.46;70.81
72128;DHT22;60000;51.030;7.024;2022-11-04T11:42:50;14.51;69.49
72128;DHT22;60000;51.030;7.024;2022-11-04T11:45:16;14.52;68.61
72128;DHT22;60000;51.030;7.024;2022-11-04T11:47:41;14.52;69.53
72128;DHT22;60000;51.030;7.024;2022-11-04T11:50:23;14.58;68.86
72128;DHT22;60000;51.030;7.024;2022-11-04T11:52:52;14.49;67.88
72128;DHT22;60000;51.030;7.024;2022-11-04T11:55:35;14.44;68.17
72128;DHT22;60000;51.030;7.024;2022-11-04T11:58:27;14.30;68.95
72128;DHT22;60000;51.030;7.024;2022-11-04T12:03:44;14.16;69.23
72128;DHT22;60000;51.030;7.024;2022-11-04T12:19:50;13.55;70.52
72128;DHT22;60000;51.030;7.024;2022-11-04T12:22:39;13.48;70.28
72128;DHT22;60000;51.030;7.024;2022-11-04T12:25:40;13.42;70.83
72128;DHT22;60000;51.030;7.024;2022-11-04T12:34:17;13.39;71.88
72128;DHT22;60000;51.030;7.024;2022-11-04T12:36:57;13.36;71.45
72128;DHT22;60000;51.030;7.024;2022-11-04T12:42:31;13.29;72.04
72128;DHT22;60000;51.030;7.024;2022-11-04T12:47:37;13.29;71.95
72128;DHT22;60000;51.030;7.024;2022-11-04T12:50:28;13.22;71.35
72128;DHT22;60000;51.030;7.024;2022-11-04T12:58:13;13.10;72.72
72128;DHT22;60000;51.030;7.024;2022-11-04T13:00:46;13.08;72.82
72128;DHT22;60000;51.030;7.024;2022-11-04T13:03:20;13.01;72.85
72128;DHT22;60000;51.030;7.024;2022-11-04T13:05:57;13.00;73.44
72128;DHT22;60000;51.030;7.024;2022-11-04T13:08:59;13.03;74.12
72128;DHT22;60000;51.030;7.024;2022-11-04T13:11:38;13.00;74.24
72128;DHT22;60000;51.030;7.024;2022-11-04T13:16:35;13.07;74.09
72128;DHT22;60000;51.030;7.024;2022-11-04T13:19:04;13.05;73.50
72128;DHT22;60000;51.030;7.024;2022-11-04T13:21:35;13.07;74.02
72128;DHT22;60000;51.030;7.024;2022-11-04T13:24:27;13.05;73.17
72128;DHT22;60000;51.030;7.024;2022-11-04T13:26:57;13.03;73.12
72128;DHT22;60000;51.030;7.024;2022-11-04T13:29:24;13.04;73.10
72128;DHT22;60000;51.030;7.024;2022-11-04T13:32:00;13.05;73.10
72128;DHT22;60000;51.030;7.024;2022-11-04T13:37:27;12.98;73.33
72128;DHT22;60000;51.030;7.024;2022-11-04T13:45:09;12.90;72.55
72128;DHT22;60000;51.030;7.024;2022-11-04T13:47:40;12.90;73.10
72128;DHT22;60000;51.030;7.024;2022-11-04T13:50:26;12.91;73.23
72128;DHT22;60000;51.030;7.024;2022-11-04T13:52:53;12.88;72.31
72128;DHT22;60000;51.030;7.024;2022-11-04T13:55:19;12.86;72.05
72128;DHT22;60000;51.030;7.024;2022-11-04T13:57:54;12.77;72.24
72128;DHT22;60000;51.030;7.024;2022-11-04T14:00:23;12.74;72.46
72128;DHT22;60000;51.030;7.024;2022-11-04T14:18:40;12.76;74.26
72128;DHT22;60000;51.030;7.024;2022-11-04T14:21:11;12.72;74.19
72128;DHT22;60000;51.030;7.024;2022-11-04T14:23:38;12.73;74.67
72128;DHT22;60000;51.030;7.024;2022-11-04T14:26:07;12.70;74.26
72128;DHT22;60000;51.030;7.024;2022-11-04T14:28:33;12.67;74.21
72128;DHT22;60000;51.030;7.024;2022-11-04T14:31:07;12.68;74.74
72128;DHT22;60000;51.030;7.024;2022-11-04T14:33:55;12.70;74.92
72128;DHT22;60000;51.030;7.024;2022-11-04T14:44:45;12.61;75.08
72128;DHT22;60000;51.030;7.024;2022-11-04T14:47:22;12.61;75.29
72128;DHT22;60000;51.030;7.024;2022-11-04T14:52:27;12.56;75.46
72128;DHT22;60000;51.030;7.024;2022-11-04T14:55:20;12.49;75.36
72128;DHT22;60000;51.030;7.024;2022-11-04T14:57:52;12.47;75.54
72128;DHT22;60000;51.030;7.024;2022-11-04T15:02:48;12.40;76.26
72128;DHT22;60000;51.030;7.024;2022-11-04T15:05:25;12.36;76.33
72128;DHT22;60000;51.030;7.024;2022-11-04T15:07:51;12.35;76.50
72128;DHT22;60000;51.030;7.024;2022-11-04T15:10:23;12.32;76.68
72128;DHT22;60000;51.030;7.024;2022-11-04T15:12:51;12.30;77.01
72128;DHT22;60000;51.030;7.024;2022-11-04T15:15:35;12.28;77.32
72128;DHT22;60000;51.030;7.024;2022-11-04T15:20:35;12.19;77.10
72128;DHT22;60000;51.030;7.024;2022-11-04T15:23:02;12.15;77.30
72128;DHT22;60000;51.030;7.024;2022-11-04T15:25:30;12.15;77.42
72128;DHT22;60000;51.030;7.024;2022-11-04T15:27:56;12.15;77.65
72128;DHT22;60000;51.030;7.024;2022-11-04T15:30:28;12.08;77.71
72128;DHT22;60000;51.030;7.024;2022-11-04T15:33:01;12.06;77.92
72128;DHT22;60000;51.030;7.024;2022-11-04T15:35:28;12.06;78.06
72128;DHT22;60000;51.030;7.024;2022-11-04T15:37:55;12.04;78.26
72128;DHT22;60000;51.030;7.024;2022-11-04T15:40:23;12.04;78.64
72128;DHT22;60000;51.030;7.024;2022-11-04T15:42:49;11.99;78.70
72128;DHT22;60000;51.030;7.024;2022-11-04T15:47:46;11.95;78.95
72128;DHT22;60000;51.030;7.024;2022-11-04T15:50:21;11.94;79.25
72128;DHT22;60000;51.030;7.024;2022-11-04T15:52:49;11.92;79.28
72128;DHT22;60000;51.030;7.024;2022-11-04T15:55:24;11.91;79.58
72128;DHT22;60000;51.030;7.024;2022-11-04T15:58:03;11.87;79.54
72128;DHT22;60000;51.030;7.024;2022-11-04T16:00:50;11.87;79.63
72128;DHT22;60000;51.030;7.024;2022-11-04T16:03:35;11.81;79.77
72128;DHT22;60000;51.030;7.024;2022-11-04T16:06:13;11.79;79.92
72128;DHT22;60000;51.030;7.024;2022-11-04T16:08:38;11.77;80.18
72128;DHT22;60000;51.030;7.024;2022-11-04T16:11:22;11.68;79.98
72128;DHT22;60000;51.030;7.024;2022-11-04T16:13:50;11.67;80.14
72128;DHT22;60000;51.030;7.024;2022-11-04T16:16:22;11.60;80.31
72128;DHT22;60000;51.030;7.024;2022-11-04T16:21:28;11.46;80.52
72128;DHT22;60000;51.030;7.024;2022-11-04T16:24:06;11.38;80.50
72128;DHT22;60000;51.030;7.024;2022-11-04T16:26:38;11.31;80.54
72128;DHT22;60000;51.030;7.024;2022-11-04T16:29:22;11.22;80.60
72128;DHT22;60000;51.030;7.024;2022-11-04T16:32:15;11.09;80.87
72128;DHT22;60000;51.030;7.024;2022-11-04T16:34:41;11.03;80.95
72128;DHT22;60000;51.030;7.024;2022-11-04T16:37:07;10.96;81.48
72128;DHT22;60000;51.030;7.024;2022-11-04T16:39:32;10.88;81.75
72128;DHT22;60000;51.030;7.024;2022-11-04T16:41:58;10.88;82.40
72128;DHT22;60000;51.030;7.024;2022-11-04T16:44:24;10.82;82.58
72128;DHT22;60000;51.030;7.024;2022-11-04T16:46:50;10.82;83.17
72128;DHT22;60000;51.030;7.024;2022-11-04T16:49:21;10.85;83.31
72128;DHT22;60000;51.030;7.024;2022-11-04T16:51:53;10.89;83.54
72128;DHT22;60000;51.030;7.024;2022-11-04T16:54:19;10.91;83.60
72128;DHT22;60000;51.030;7.024;2022-11-04T16:56:44;10.88;83.66
72128;DHT22;60000;51.030;7.024;2022-11-04T16:59:10;10.89;83.66
72128;DHT22;60000;51.030;7.024;2022-11-04T17:01:36;10.88;83.63
72128;DHT22;60000;51.030;7.024;2022-11-04T17:04:06;10.86;83.56
72128;DHT22;60000;51.030;7.024;2022-11-04T17:06:33;10.88;83.67
72128;DHT22;60000;51.030;7.024;2022-11-04T17:08:59;10.83;83.59
72128;DHT22;60000;51.030;7.024;2022-11-04T17:11:25;10.85;83.59
72128;DHT22;60000;51.030;7.024;2022-11-04T17:13:53;10.85;83.71
72128;DHT22;60000;51.030;7.024;2022-11-04T17:16:18;10.79;83.56
72128;DHT22;60000;51.030;7.024;2022-11-04T17:18:44;10.76;83.64
72128;DHT22;60000;51.030;7.024;2022-11-04T17:21:12;10.71;83.64
72128;DHT22;60000;51.030;7.024;2022-11-04T17:23:41;10.62;83.60
72128;DHT22;60000;51.030;7.024;2022-11-04T17:26:08;10.59;84.07
72128;DHT22;60000;51.030;7.024;2022-11-04T17:28:33;10.54;84.23
72128;DHT22;60000;51.030;7.024;2022-11-04T17:31:01;10.47;84.56
72128;DHT22;60000;51.030;7.024;2022-11-04T17:33:26;10.42;84.40
72128;DHT22;60000;51.030;7.024;2022-11-04T17:35:52;10.34;84.47
72128;DHT22;60000;51.030;7.024;2022-11-04T17:38:18;10.28;84.75
72128;DHT22;60000;51.030;7.024;2022-11-04T17:40:43;10.25;84.96
72128;DHT22;60000;51.030;7.024;2022-11-04T17:43:28;10.22;85.17
72128;DHT22;60000;51.030;7.024;2022-11-04T17:46:13;10.18;85.25
72128;DHT22;60000;51.030;7.024;2022-11-04T17:48:57;10.14;85.37
72128;DHT22;60000;51.030;7.024;2022-11-04T17:51:23;10.17;85.68
72128;DHT22;60000;51.030;7.024;2022-11-04T17:53:48;10.14;85.73
72128;DHT22;60000;51.030;7.024;2022-11-04T17:56:15;10.11;85.95
72128;DHT22;60000;51.030;7.024;2022-11-04T17:58:41;10.09;85.97
72128;DHT22;60000;51.030;7.024;2022-11-04T18:01:11;10.11;86.18
72128;DHT22;60000;51.030;7.024;2022-11-04T18:03:37;10.07;86.36
72128;DHT22;60000;51.030;7.024;2022-11-04T18:06:03;10.06;86.35
72128;DHT22;60000;51.030;7.024;2022-11-04T18:08:29;10.07;86.70
72128;DHT22;60000;51.030;7.024;2022-11-04T18:10:59;10.06;86.91
72128;DHT22;60000;51.030;7.024;2022-11-04T18:13:24;10.06;87.08
72128;DHT22;60000;51.030;7.024;2022-11-04T18:15:50;10.09;87.07
72128;DHT22;60000;51.030;7.024;2022-11-04T18:18:15;10.06;87.13
72128;DHT22;60000;51.030;7.024;2022-11-04T18:20:41;10.07;87.35
72128;DHT22;60000;51.030;7.024;2022-11-04T18:23:06;10.13;87.55